sensor_id;sensor_type;location;lat;lon;timestamp;pressure;altitude;pressure_sealevel;temperature
64916;BMP280;51427;-27.442;153.014;2023-06-10T00:02:26;102207.00;;;21.08
64916;BMP280;51427;-27.442;153.014;2023-06-10T00:04:54;102196.25;;;20.63
64916;BMP280;51427;-27.442;153.014;2023-06-10T00:07:22;102193.22;;;21.11
64916;BMP280;51427;-27.442;153.014;2023-06-10T00:09:49;102190.25;;;21.31
64916;BMP280;51427;-27.442;153.014;2023-06-10T00:12:18;102197.97;;;20.49
64916;BMP280;51427;-27.442;153.014;2023-06-10T00:14:47;102176.41;;;21.73
64916;BMP280;51427;-27.442;153.014;2023-06-10T00:17:16;102188.69;;;21.54
64916;BMP280;51427;-27.442;153.014;2023-06-10T00:19:44;102184.97;;;21.34
64916;BMP280;51427;-27.442;153.014;2023-06-10T00:22:13;102184.56;;;21.01
64916;BMP280;51427;-27.442;153.014;2023-06-10T00:24:41;102183.84;;;21.37
64916;BMP280;51427;-27.442;153.014;2023-06-10T00:27:09;102177.81;;;21.00
64916;BMP280;51427;-27.442;153.014;2023-06-10T00:29:36;102177.81;;;21.65
64916;BMP280;51427;-27.442;153.014;2023-06-10T00:32:06;102177.00;;;21.52
64916;BMP280;51427;-27.442;153.014;2023-06-10T00:34:33;102170.50;;;21.97
64916;BMP280;51427;-27.442;153.014;2023-06-10T00:37:02;102165.22;;;22.25
64916;BMP280;51427;-27.442;153.014;2023-06-10T00:39:29;102156.22;;;22.20
64916;BMP280;51427;-27.442;153.014;2023-06-10T00:41:57;102159.00;;;22.52
64916;BMP280;51427;-27.442;153.014;2023-06-10T00:44:25;102156.53;;;22.63
64916;BMP280;51427;-27.442;153.014;2023-06-10T00:46:52;102150.22;;;23.15
64916;BMP280;51427;-27.442;153.014;2023-06-10T00:49:22;102152.34;;;22.27
64916;BMP280;51427;-27.442;153.014;2023-06-10T00:51:50;102153.34;;;22.36
64916;BMP280;51427;-27.442;153.014;2023-06-10T00:54:19;102148.41;;;22.81
64916;BMP280;51427;-27.442;153.014;2023-06-10T00:56:47;102155.47;;;22.42
64916;BMP280;51427;-27.442;153.014;2023-06-10T00:59:14;102150.09;;;21.97
64916;BMP280;51427;-27.442;153.014;2023-06-10T01:01:42;102146.00;;;22.32
64916;BMP280;51427;-27.442;153.014;2023-06-10T01:04:10;102135.34;;;22.50
64916;BMP280;51427;-27.442;153.014;2023-06-10T01:10:05;102132.09;;;22.48
64916;BMP280;51427;-27.442;153.014;2023-06-10T01:12:46;102127.34;;;22.67
64916;BMP280;51427;-27.442;153.014;2023-06-10T01:15:16;102116.41;;;23.57
64916;BMP280;51427;-27.442;153.014;2023-06-10T01:18:01;102127.44;;;22.66
64916;BMP280;51427;-27.442;153.014;2023-06-10T01:20:30;102121.13;;;22.59
64916;BMP280;51427;-27.442;153.014;2023-06-10T01:23:02;102115.47;;;23.02
64916;BMP280;51427;-27.442;153.014;2023-06-10T01:25:31;102106.41;;;23.32
64916;BMP280;51427;-27.442;153.014;2023-06-10T01:31:11;102102.88;;;22.52
64916;BMP280;51427;-27.442;153.014;2023-06-10T01:33:45;102088.00;;;23.94
64916;BMP280;51427;-27.442;153.014;2023-06-10T01:36:15;102085.94;;;23.88
64916;BMP280;51427;-27.442;153.014;2023-06-10T01:38:46;102071.72;;;23.84
64916;BMP280;51427;-27.442;153.014;2023-06-10T01:41:17;102068.38;;;23.72
64916;BMP280;51427;-27.442;153.014;2023-06-10T01:43:47;102067.19;;;23.66
64916;BMP280;51427;-27.442;153.014;2023-06-10T01:46:15;102058.63;;;23.77
64916;BMP280;51427;-27.442;153.014;2023-06-10T01:48:46;102060.53;;;23.30
64916;BMP280;51427;-27.442;153.014;2023-06-10T01:51:14;102054.25;;;23.45
64916;BMP280;51427;-27.442;153.014;2023-06-10T01:53:42;102054.88;;;23.81
64916;BMP280;51427;-27.442;153.014;2023-06-10T01:56:10;102042.81;;;24.47
64916;BMP280;51427;-27.442;153.014;2023-06-10T01:58:43;102057.63;;;22.67
64916;BMP280;51427;-27.442;153.014;2023-06-10T02:01:11;102034.53;;;23.69
64916;BMP280;51427;-27.442;153.014;2023-06-10T02:03:39;102042.13;;;23.15
64916;BMP280;51427;-27.442;153.014;2023-06-10T02:06:07;102032.25;;;23.66
64916;BMP280;51427;-27.442;153.014;2023-06-10T02:08:34;102023.25;;;23.93
64916;BMP280;51427;-27.442;153.014;2023-06-10T02:11:02;102024.66;;;24.50
64916;BMP280;51427;-27.442;153.014;2023-06-10T02:13:30;102016.56;;;24.23
64916;BMP280;51427;-27.442;153.014;2023-06-10T02:15:57;102017.31;;;24.14
64916;BMP280;51427;-27.442;153.014;2023-06-10T02:18:25;102011.72;;;24.20
64916;BMP280;51427;-27.442;153.014;2023-06-10T02:20:54;102015.66;;;23.05
64916;BMP280;51427;-27.442;153.014;2023-06-10T02:23:21;102012.94;;;23.84
64916;BMP280;51427;-27.442;153.014;2023-06-10T02:25:49;102007.47;;;23.56
64916;BMP280;51427;-27.442;153.014;2023-06-10T02:28:17;102013.41;;;23.67
64916;BMP280;51427;-27.442;153.014;2023-06-10T02:30:44;102002.81;;;22.83
64916;BMP280;51427;-27.442;153.014;2023-06-10T02:33:13;101990.25;;;23.90
64916;BMP280;51427;-27.442;153.014;2023-06-10T02:35:42;102000.63;;;22.55
64916;BMP280;51427;-27.442;153.014;2023-06-10T02:38:10;101981.69;;;23.26
64916;BMP280;51427;-27.442;153.014;2023-06-10T02:40:37;101981.09;;;23.55
64916;BMP280;51427;-27.442;153.014;2023-06-10T02:43:05;101983.38;;;23.15
64916;BMP280;51427;-27.442;153.014;2023-06-10T02:45:33;101976.88;;;22.66
64916;BMP280;51427;-27.442;153.014;2023-06-10T02:48:00;101979.47;;;23.54
64916;BMP280;51427;-27.442;153.014;2023-06-10T02:50:28;101980.13;;;23.02
64916;BMP280;51427;-27.442;153.014;2023-06-10T02:52:55;101965.50;;;23.80
64916;BMP280;51427;-27.442;153.014;2023-06-10T02:55:23;101969.97;;;23.67
64916;BMP280;51427;-27.442;153.014;2023-06-10T02:57:53;101967.78;;;24.05
64916;BMP280;51427;-27.442;153.014;2023-06-10T03:00:21;101958.31;;;24.78
64916;BMP280;51427;-27.442;153.014;2023-06-10T03:02:49;101950.25;;;25.03
64916;BMP280;51427;-27.442;153.014;2023-06-10T03:05:17;101941.75;;;24.62
64916;BMP280;51427;-27.442;153.014;2023-06-10T03:07:45;101953.44;;;22.95
64916;BMP280;51427;-27.442;153.014;2023-06-10T03:10:14;101946.72;;;23.16
64916;BMP280;51427;-27.442;153.014;2023-06-10T03:12:42;101941.81;;;23.78
64916;BMP280;51427;-27.442;153.014;2023-06-10T03:15:10;101935.81;;;23.68
64916;BMP280;51427;-27.442;153.014;2023-06-10T03:17:37;101931.16;;;23.51
64916;BMP280;51427;-27.442;153.014;2023-06-10T03:20:05;101930.38;;;23.18
64916;BMP280;51427;-27.442;153.014;2023-06-10T03:22:34;101934.63;;;23.72
64916;BMP280;51427;-27.442;153.014;2023-06-10T03:25:02;101935.72;;;22.36
64916;BMP280;51427;-27.442;153.014;2023-06-10T03:27:30;101930.75;;;22.34
64916;BMP280;51427;-27.442;153.014;2023-06-10T03:29:58;101932.16;;;22.49
64916;BMP280;51427;-27.442;153.014;2023-06-10T03:32:25;101922.34;;;23.01
64916;BMP280;51427;-27.442;153.014;2023-06-10T03:34:53;101930.13;;;23.43
64916;BMP280;51427;-27.442;153.014;2023-06-10T03:37:24;101928.50;;;22.64
64916;BMP280;51427;-27.442;153.014;2023-06-10T03:39:52;101917.72;;;23.27
64916;BMP280;51427;-27.442;153.014;2023-06-10T03:42:20;101928.44;;;22.42
64916;BMP280;51427;-27.442;153.014;2023-06-10T03:44:47;101922.47;;;22.99
64916;BMP280;51427;-27.442;153.014;2023-06-10T03:47:15;101914.66;;;23.77
64916;BMP280;51427;-27.442;153.014;2023-06-10T03:49:42;101912.34;;;23.74
64916;BMP280;51427;-27.442;153.014;2023-06-10T03:52:10;101926.66;;;22.66
64916;BMP280;51427;-27.442;153.014;2023-06-10T03:54:37;101918.63;;;23.26
64916;BMP280;51427;-27.442;153.014;2023-06-10T03:57:05;101922.47;;;22.99
64916;BMP280;51427;-27.442;153.014;2023-06-10T03:59:33;101914.94;;;23.94
64916;BMP280;51427;-27.442;153.014;2023-06-10T04:02:00;101910.22;;;24.82
64916;BMP280;51427;-27.442;153.014;2023-06-10T04:04:28;101909.72;;;24.88
64916;BMP280;51427;-27.442;153.014;2023-06-10T04:06:56;101927.22;;;23.15
64916;BMP280;51427;-27.442;153.014;2023-06-10T04:09:24;101930.47;;;23.06
64916;BMP280;51427;-27.442;153.014;2023-06-10T04:11:52;101924.38;;;22.85
64916;BMP280;51427;-27.442;153.014;2023-06-10T04:14:19;101907.75;;;24.19
64916;BMP280;51427;-27.442;153.014;2023-06-10T04:16:47;101909.63;;;24.17
64916;BMP280;51427;-27.442;153.014;2023-06-10T04:19:15;101898.16;;;24.73
64916;BMP280;51427;-27.442;153.014;2023-06-10T04:21:43;101913.75;;;23.02
64916;BMP280;51427;-27.442;153.014;2023-06-10T04:24:10;101901.41;;;23.72
64916;BMP280;51427;-27.442;153.014;2023-06-10T04:26:38;101908.59;;;22.91
64916;BMP280;51427;-27.442;153.014;2023-06-10T04:29:06;101913.19;;;22.64
64916;BMP280;51427;-27.442;153.014;2023-06-10T04:31:34;101908.19;;;22.52
64916;BMP280;51427;-27.442;153.014;2023-06-10T04:34:02;101903.91;;;22.63
64916;BMP280;51427;-27.442;153.014;2023-06-10T04:36:29;101903.75;;;22.99
64916;BMP280;51427;-27.442;153.014;2023-06-10T04:38:57;101896.78;;;23.44
64916;BMP280;51427;-27.442;153.014;2023-06-10T04:41:24;101906.47;;;22.63
64916;BMP280;51427;-27.442;153.014;2023-06-10T04:43:53;101902.53;;;22.70
64916;BMP280;51427;-27.442;153.014;2023-06-10T04:46:21;101909.44;;;23.13
64916;BMP280;51427;-27.442;153.014;2023-06-10T04:48:48;101907.50;;;23.17
64916;BMP280;51427;-27.442;153.014;2023-06-10T04:51:16;101925.25;;;22.51
64916;BMP280;51427;-27.442;153.014;2023-06-10T04:53:44;101913.72;;;23.45
64916;BMP280;51427;-27.442;153.014;2023-06-10T04:56:11;101919.34;;;22.73
64916;BMP280;51427;-27.442;153.014;2023-06-10T04:58:39;101924.03;;;22.44
64916;BMP280;51427;-27.442;153.014;2023-06-10T05:01:07;101910.81;;;22.16
64916;BMP280;51427;-27.442;153.014;2023-06-10T05:03:34;101919.22;;;22.06
64916;BMP280;51427;-27.442;153.014;2023-06-10T05:06:02;101925.34;;;22.03
64916;BMP280;51427;-27.442;153.014;2023-06-10T05:08:30;101928.13;;;22.00
64916;BMP280;51427;-27.442;153.014;2023-06-10T05:10:57;101931.75;;;22.09
64916;BMP280;51427;-27.442;153.014;2023-06-10T05:13:25;101934.34;;;21.96
64916;BMP280;51427;-27.442;153.014;2023-06-10T05:15:53;101928.41;;;21.73
64916;BMP280;51427;-27.442;153.014;2023-06-10T05:18:20;101933.84;;;21.56
64916;BMP280;51427;-27.442;153.014;2023-06-10T05:20:48;101933.34;;;21.63
64916;BMP280;51427;-27.442;153.014;2023-06-10T05:23:16;101938.38;;;21.88
64916;BMP280;51427;-27.442;153.014;2023-06-10T05:25:43;101933.69;;;21.82
64916;BMP280;51427;-27.442;153.014;2023-06-10T05:28:11;101945.88;;;21.41
64916;BMP280;51427;-27.442;153.014;2023-06-10T05:30:39;101954.44;;;21.28
64916;BMP280;51427;-27.442;153.014;2023-06-10T05:33:09;101951.41;;;21.23
64916;BMP280;51427;-27.442;153.014;2023-06-10T05:35:37;101955.38;;;21.15
64916;BMP280;51427;-27.442;153.014;2023-06-10T05:38:05;101953.25;;;21.21
64916;BMP280;51427;-27.442;153.014;2023-06-10T05:40:32;101963.63;;;21.18
64916;BMP280;51427;-27.442;153.014;2023-06-10T05:43:00;101962.31;;;21.13
64916;BMP280;51427;-27.442;153.014;2023-06-10T05:45:28;101959.63;;;21.14
64916;BMP280;51427;-27.442;153.014;2023-06-10T05:47:55;101959.53;;;21.28
64916;BMP280;51427;-27.442;153.014;2023-06-10T05:50:24;101960.38;;;21.16
64916;BMP280;51427;-27.442;153.014;2023-06-10T05:52:52;101973.00;;;20.93
64916;BMP280;51427;-27.442;153.014;2023-06-10T05:55:21;101964.00;;;20.88
64916;BMP280;51427;-27.442;153.014;2023-06-10T05:57:59;101968.09;;;20.90
64916;BMP280;51427;-27.442;153.014;2023-06-10T06:00:27;101969.59;;;20.92
64916;BMP280;51427;-27.442;153.014;2023-06-10T06:02:55;101976.00;;;20.73
64916;BMP280;51427;-27.442;153.014;2023-06-10T06:05:24;101975.94;;;20.87
64916;BMP280;51427;-27.442;153.014;2023-06-10T06:07:51;101978.84;;;20.69
64916;BMP280;51427;-27.442;153.014;2023-06-10T06:10:19;101981.28;;;20.70
64916;BMP280;51427;-27.442;153.014;2023-06-10T06:12:47;101979.28;;;20.61
64916;BMP280;51427;-27.442;153.014;2023-06-10T06:15:15;101984.38;;;20.61
64916;BMP280;51427;-27.442;153.014;2023-06-10T06:17:42;101983.16;;;20.54
64916;BMP280;51427;-27.442;153.014;2023-06-10T06:20:10;101993.53;;;20.51
64916;BMP280;51427;-27.442;153.014;2023-06-10T06:22:38;101985.31;;;20.60
64916;BMP280;51427;-27.442;153.014;2023-06-10T06:25:06;101984.78;;;20.55
64916;BMP280;51427;-27.442;153.014;2023-06-10T06:27:33;101983.03;;;20.43
64916;BMP280;51427;-27.442;153.014;2023-06-10T06:30:01;101998.66;;;20.38
64916;BMP280;51427;-27.442;153.014;2023-06-10T06:32:29;101998.50;;;20.27
64916;BMP280;51427;-27.442;153.014;2023-06-10T06:34:57;102003.94;;;20.35
64916;BMP280;51427;-27.442;153.014;2023-06-10T06:37:25;102002.72;;;20.14
64916;BMP280;51427;-27.442;153.014;2023-06-10T06:39:53;102002.72;;;20.14
64916;BMP280;51427;-27.442;153.014;2023-06-10T06:42:21;102005.47;;;20.11
64916;BMP280;51427;-27.442;153.014;2023-06-10T06:44:49;102013.09;;;19.97
64916;BMP280;51427;-27.442;153.014;2023-06-10T06:47:16;102016.09;;;19.90
64916;BMP280;51427;-27.442;153.014;2023-06-10T06:49:47;102021.09;;;19.91
64916;BMP280;51427;-27.442;153.014;2023-06-10T06:52:15;102018.25;;;19.82
64916;BMP280;51427;-27.442;153.014;2023-06-10T06:54:43;102027.34;;;19.72
64916;BMP280;51427;-27.442;153.014;2023-06-10T06:57:10;102025.88;;;19.68
64916;BMP280;51427;-27.442;153.014;2023-06-10T06:59:38;102020.34;;;19.61
64916;BMP280;51427;-27.442;153.014;2023-06-10T07:02:06;102034.69;;;19.49
64916;BMP280;51427;-27.442;153.014;2023-06-10T07:04:34;102027.78;;;19.51
64916;BMP280;51427;-27.442;153.014;2023-06-10T07:07:01;102030.84;;;19.42
64916;BMP280;51427;-27.442;153.014;2023-06-10T07:09:29;102038.38;;;19.29
64916;BMP280;51427;-27.442;153.014;2023-06-10T07:11:57;102038.66;;;19.39
64916;BMP280;51427;-27.442;153.014;2023-06-10T07:14:24;102038.66;;;19.25
64916;BMP280;51427;-27.442;153.014;2023-06-10T07:16:52;102040.66;;;19.34
64916;BMP280;51427;-27.442;153.014;2023-06-10T07:19:20;102046.28;;;19.25
64916;BMP280;51427;-27.442;153.014;2023-06-10T07:21:47;102044.81;;;19.21
64916;BMP280;51427;-27.442;153.014;2023-06-10T07:24:15;102052.59;;;19.18
64916;BMP280;51427;-27.442;153.014;2023-06-10T07:26:42;102053.13;;;19.23
64916;BMP280;51427;-27.442;153.014;2023-06-10T07:29:10;102052.75;;;19.15
64916;BMP280;51427;-27.442;153.014;2023-06-10T07:31:38;102058.75;;;19.14
64916;BMP280;51427;-27.442;153.014;2023-06-10T07:34:05;102061.75;;;19.20
64916;BMP280;51427;-27.442;153.014;2023-06-10T07:36:35;102062.69;;;19.04
64916;BMP280;51427;-27.442;153.014;2023-06-10T07:39:04;102063.16;;;19.10
64916;BMP280;51427;-27.442;153.014;2023-06-10T07:41:32;102074.16;;;18.96
64916;BMP280;51427;-27.442;153.014;2023-06-10T07:44:00;102074.66;;;19.02
64916;BMP280;51427;-27.442;153.014;2023-06-10T07:46:27;102079.47;;;18.91
64916;BMP280;51427;-27.442;153.014;2023-06-10T07:48:55;102080.94;;;18.95
64916;BMP280;51427;-27.442;153.014;2023-06-10T07:51:23;102081.38;;;19.03
64916;BMP280;51427;-27.442;153.014;2023-06-10T07:53:50;102089.38;;;18.96
64916;BMP280;51427;-27.442;153.014;2023-06-10T07:56:18;102096.75;;;18.85
64916;BMP280;51427;-27.442;153.014;2023-06-10T07:58:47;102098.69;;;18.95
64916;BMP280;51427;-27.442;153.014;2023-06-10T08:01:15;102101.75;;;18.86
64916;BMP280;51427;-27.442;153.014;2023-06-10T08:03:43;102108.22;;;18.76
64916;BMP280;51427;-27.442;153.014;2023-06-10T08:06:10;102105.28;;;18.68
64916;BMP280;51427;-27.442;153.014;2023-06-10T08:08:38;102105.28;;;18.68
64916;BMP280;51427;-27.442;153.014;2023-06-10T08:11:10;102119.59;;;18.69
64916;BMP280;51427;-27.442;153.014;2023-06-10T08:13:38;102116.56;;;18.63
64916;BMP280;51427;-27.442;153.014;2023-06-10T08:16:06;102119.34;;;18.43
64916;BMP280;51427;-27.442;153.014;2023-06-10T08:18:34;102125.38;;;18.41
64916;BMP280;51427;-27.442;153.014;2023-06-10T08:21:01;102130.47;;;18.56
64916;BMP280;51427;-27.442;153.014;2023-06-10T08:23:29;102144.38;;;18.64
64916;BMP280;51427;-27.442;153.014;2023-06-10T08:25:57;102138.41;;;18.65
64916;BMP280;51427;-27.442;153.014;2023-06-10T08:28:25;102134.56;;;18.59
64916;BMP280;51427;-27.442;153.014;2023-06-10T08:30:52;102136.38;;;18.57
64916;BMP280;51427;-27.442;153.014;2023-06-10T08:33:20;102145.19;;;18.50
64916;BMP280;51427;-27.442;153.014;2023-06-10T08:35:47;102141.75;;;18.35
64916;BMP280;51427;-27.442;153.014;2023-06-10T08:38:15;102142.31;;;18.40
64916;BMP280;51427;-27.442;153.014;2023-06-10T08:40:43;102146.31;;;18.29
64916;BMP280;51427;-27.442;153.014;2023-06-10T08:43:42;102145.84;;;18.38
64916;BMP280;51427;-27.442;153.014;2023-06-10T08:46:11;102154.81;;;18.11
64916;BMP280;51427;-27.442;153.014;2023-06-10T08:48:44;102157.50;;;18.08
64916;BMP280;51427;-27.442;153.014;2023-06-10T08:51:14;102158.28;;;17.93
64916;BMP280;51427;-27.442;153.014;2023-06-10T08:53:50;102163.34;;;17.93
64916;BMP280;51427;-27.442;153.014;2023-06-10T08:56:21;102163.22;;;18.13
64916;BMP280;51427;-27.442;153.014;2023-06-10T08:58:49;102171.25;;;17.87
64916;BMP280;51427;-27.442;153.014;2023-06-10T09:01:17;102172.47;;;17.80
64916;BMP280;51427;-27.442;153.014;2023-06-10T09:03:45;102177.19;;;17.86
64916;BMP280;51427;-27.442;153.014;2023-06-10T09:06:13;102178.03;;;17.87
64916;BMP280;51427;-27.442;153.014;2023-06-10T09:08:41;102179.22;;;17.80
64916;BMP280;51427;-27.442;153.014;2023-06-10T09:11:09;102193.28;;;17.52
64916;BMP280;51427;-27.442;153.014;2023-06-10T09:13:37;102200.63;;;17.23
64916;BMP280;51427;-27.442;153.014;2023-06-10T09:16:04;102207.25;;;17.25
64916;BMP280;51427;-27.442;153.014;2023-06-10T09:18:32;102211.97;;;17.32
64916;BMP280;51427;-27.442;153.014;2023-06-10T09:21:01;102209.78;;;17.07
64916;BMP280;51427;-27.442;153.014;2023-06-10T09:23:29;102216.66;;;16.67
64916;BMP280;51427;-27.442;153.014;2023-06-10T09:25:58;102216.09;;;16.98
64916;BMP280;51427;-27.442;153.014;2023-06-10T09:28:26;102219.53;;;17.14
64916;BMP280;51427;-27.442;153.014;2023-06-10T09:31:05;102220.22;;;17.18
64916;BMP280;51427;-27.442;153.014;2023-06-10T09:33:36;102216.81;;;17.00
64916;BMP280;51427;-27.442;153.014;2023-06-10T09:36:05;102218.66;;;17.15
64916;BMP280;51427;-27.442;153.014;2023-06-10T09:38:34;102217.63;;;17.19
64916;BMP280;51427;-27.442;153.014;2023-06-10T09:41:03;102229.06;;;17.09
64916;BMP280;51427;-27.442;153.014;2023-06-10T09:43:45;102227.28;;;16.93
64916;BMP280;51427;-27.442;153.014;2023-06-10T09:46:18;102230.47;;;16.96
64916;BMP280;51427;-27.442;153.014;2023-06-10T09:48:47;102227.22;;;16.94
64916;BMP280;51427;-27.442;153.014;2023-06-10T09:51:15;102234.19;;;17.08
64916;BMP280;51427;-27.442;153.014;2023-06-10T09:53:50;102243.56;;;16.87
64916;BMP280;51427;-27.442;153.014;2023-06-10T09:56:19;102240.34;;;16.46
64916;BMP280;51427;-27.442;153.014;2023-06-10T09:58:47;102240.91;;;16.52
64916;BMP280;51427;-27.442;153.014;2023-06-10T10:01:15;102246.34;;;16.25
64916;BMP280;51427;-27.442;153.014;2023-06-10T10:03:50;102250.19;;;16.12
64916;BMP280;51427;-27.442;153.014;2023-06-10T10:06:19;102250.31;;;15.89
64916;BMP280;51427;-27.442;153.014;2023-06-10T10:08:48;102248.72;;;16.28
64916;BMP280;51427;-27.442;153.014;2023-06-10T10:11:21;102254.91;;;16.21
64916;BMP280;51427;-27.442;153.014;2023-06-10T10:13:53;102246.75;;;16.34
64916;BMP280;51427;-27.442;153.014;2023-06-10T10:18:58;102256.03;;;16.34
64916;BMP280;51427;-27.442;153.014;2023-06-10T10:21:29;102256.53;;;16.42
64916;BMP280;51427;-27.442;153.014;2023-06-10T10:26:38;102271.34;;;15.90
64916;BMP280;51427;-27.442;153.014;2023-06-10T10:29:14;102267.94;;;15.91
64916;BMP280;51427;-27.442;153.014;2023-06-10T10:31:44;102271.75;;;16.21
64916;BMP280;51427;-27.442;153.014;2023-06-10T10:34:18;102268.16;;;16.26
64916;BMP280;51427;-27.442;153.014;2023-06-10T10:36:47;102269.53;;;16.13
64916;BMP280;51427;-27.442;153.014;2023-06-10T10:39:15;102269.41;;;16.16
64916;BMP280;51427;-27.442;153.014;2023-06-10T10:41:44;102276.16;;;15.75
64916;BMP280;51427;-27.442;153.014;2023-06-10T10:44:12;102275.59;;;15.26
64916;BMP280;51427;-27.442;153.014;2023-06-10T10:46:49;102275.28;;;15.76
64916;BMP280;51427;-27.442;153.014;2023-06-10T10:49:20;102280.44;;;15.94
64916;BMP280;51427;-27.442;153.014;2023-06-10T10:52:00;102278.94;;;16.10
64916;BMP280;51427;-27.442;153.014;2023-06-10T10:54:35;102276.59;;;16.05
64916;BMP280;51427;-27.442;153.014;2023-06-10T10:59:52;102279.94;;;15.65
64916;BMP280;51427;-27.442;153.014;2023-06-10T11:05:09;102281.72;;;15.63
64916;BMP280;51427;-27.442;153.014;2023-06-10T11:07:37;102277.81;;;15.54
64916;BMP280;51427;-27.442;153.014;2023-06-10T11:10:12;102285.16;;;15.82
64916;BMP280;51427;-27.442;153.014;2023-06-10T11:12:52;102280.84;;;15.84
64916;BMP280;51427;-27.442;153.014;2023-06-10T11:15:23;102285.25;;;15.36
64916;BMP280;51427;-27.442;153.014;2023-06-10T11:20:52;102291.25;;;15.55
64916;BMP280;51427;-27.442;153.014;2023-06-10T11:31:26;102290.13;;;15.40
64916;BMP280;51427;-27.442;153.014;2023-06-10T11:34:05;102291.94;;;15.14
64916;BMP280;51427;-27.442;153.014;2023-06-10T11:36:34;102289.97;;;15.22
64916;BMP280;51427;-27.442;153.014;2023-06-10T11:39:04;102290.19;;;15.39
64916;BMP280;51427;-27.442;153.014;2023-06-10T11:41:33;102285.72;;;15.45
64916;BMP280;51427;-27.442;153.014;2023-06-10T11:44:11;102289.22;;;15.20
64916;BMP280;51427;-27.442;153.014;2023-06-10T11:46:39;102285.91;;;14.95
64916;BMP280;51427;-27.442;153.014;2023-06-10T11:49:07;102284.56;;;14.87
64916;BMP280;51427;-27.442;153.014;2023-06-10T11:51:40;102288.06;;;15.06
64916;BMP280;51427;-27.442;153.014;2023-06-10T11:54:15;102286.81;;;15.17
64916;BMP280;51427;-27.442;153.014;2023-06-10T11:56:43;102284.16;;;14.97
64916;BMP280;51427;-27.442;153.014;2023-06-10T11:59:10;102287.25;;;15.05
64916;BMP280;51427;-27.442;153.014;2023-06-10T12:01:43;102282.44;;;14.99
64916;BMP280;51427;-27.442;153.014;2023-06-10T12:04:14;102287.47;;;14.99
64916;BMP280;51427;-27.442;153.014;2023-06-10T12:06:47;102282.25;;;15.04
64916;BMP280;51427;-27.442;153.014;2023-06-10T12:09:19;102277.91;;;15.07
64916;BMP280;51427;-27.442;153.014;2023-06-10T12:11:58;102286.38;;;14.84
64916;BMP280;51427;-27.442;153.014;2023-06-10T12:14:50;102285.69;;;14.56
64916;BMP280;51427;-27.442;153.014;2023-06-10T12:17:42;102285.28;;;14.66
64916;BMP280;51427;-27.442;153.014;2023-06-10T12:20:26;102284.53;;;14.64
64916;BMP280;51427;-27.442;153.014;2023-06-10T12:22:54;102287.03;;;14.89
64916;BMP280;51427;-27.442;153.014;2023-06-10T12:25:26;102281.09;;;14.90
64916;BMP280;51427;-27.442;153.014;2023-06-10T12:27:57;102276.44;;;14.79
64916;BMP280;51427;-27.442;153.014;2023-06-10T12:30:25;102286.38;;;14.59
64916;BMP280;51427;-27.442;153.014;2023-06-10T12:32:53;102277.34;;;14.54
64916;BMP280;51427;-27.442;153.014;2023-06-10T12:35:26;102282.13;;;14.37
64916;BMP280;51427;-27.442;153.014;2023-06-10T12:38:03;102288.00;;;14.12
64916;BMP280;51427;-27.442;153.014;2023-06-10T12:40:35;102286.34;;;14.37
64916;BMP280;51427;-27.442;153.014;2023-06-10T12:43:03;102288.31;;;14.53
64916;BMP280;51427;-27.442;153.014;2023-06-10T12:45:35;102287.28;;;14.08
64916;BMP280;51427;-27.442;153.014;2023-06-10T12:48:09;102294.22;;;14.01
64916;BMP280;51427;-27.442;153.014;2023-06-10T12:50:40;102287.88;;;14.16
64916;BMP280;51427;-27.442;153.014;2023-06-10T12:53:08;102290.47;;;14.13
64916;BMP280;51427;-27.442;153.014;2023-06-10T12:55:36;102291.38;;;14.12
64916;BMP280;51427;-27.442;153.014;2023-06-10T12:58:03;102284.56;;;14.40
64916;BMP280;51427;-27.442;153.014;2023-06-10T13:00:31;102289.41;;;14.45
64916;BMP280;51427;-27.442;153.014;2023-06-10T13:03:00;102273.50;;;14.44
64916;BMP280;51427;-27.442;153.014;2023-06-10T13:05:29;102280.88;;;13.99
64916;BMP280;51427;-27.442;153.014;2023-06-10T13:07:56;102283.53;;;13.94
64916;BMP280;51427;-27.442;153.014;2023-06-10T13:10:24;102293.53;;;13.70
64916;BMP280;51427;-27.442;153.014;2023-06-10T13:12:52;102283.41;;;13.99
64916;BMP280;51427;-27.442;153.014;2023-06-10T13:15:21;102282.84;;;13.63
64916;BMP280;51427;-27.442;153.014;2023-06-10T13:17:48;102281.59;;;13.76
64916;BMP280;51427;-27.442;153.014;2023-06-10T13:20:18;102273.56;;;13.91
64916;BMP280;51427;-27.442;153.014;2023-06-10T13:22:47;102274.75;;;13.54
64916;BMP280;51427;-27.442;153.014;2023-06-10T13:25:14;102274.47;;;13.63
64916;BMP280;51427;-27.442;153.014;2023-06-10T13:27:41;102269.72;;;13.81
64916;BMP280;51427;-27.442;153.014;2023-06-10T13:30:10;102273.31;;;13.73
64916;BMP280;51427;-27.442;153.014;2023-06-10T13:32:38;102270.25;;;13.91
64916;BMP280;51427;-27.442;153.014;2023-06-10T13:35:05;102270.72;;;14.02
64916;BMP280;51427;-27.442;153.014;2023-06-10T13:37:33;102265.25;;;13.89
64916;BMP280;51427;-27.442;153.014;2023-06-10T13:40:01;102265.53;;;13.80
64916;BMP280;51427;-27.442;153.014;2023-06-10T13:42:29;102274.34;;;13.40
64916;BMP280;51427;-27.442;153.014;2023-06-10T13:44:56;102267.69;;;13.39
64916;BMP280;51427;-27.442;153.014;2023-06-10T13:47:24;102269.44;;;13.36
64916;BMP280;51427;-27.442;153.014;2023-06-10T13:49:51;102265.75;;;13.47
64916;BMP280;51427;-27.442;153.014;2023-06-10T13:52:18;102262.25;;;13.51
64916;BMP280;51427;-27.442;153.014;2023-06-10T13:54:46;102256.19;;;13.84
64916;BMP280;51427;-27.442;153.014;2023-06-10T13:57:13;102257.13;;;13.81
64916;BMP280;51427;-27.442;153.014;2023-06-10T13:59:40;102263.22;;;13.74
64916;BMP280;51427;-27.442;153.014;2023-06-10T14:02:07;102257.16;;;13.54